sensor_id;sensor_type;location;lat;lon;timestamp;P1;durP1;ratioP1;P2;durP2;ratioP2
9254;SDS011;4663;49.120;9.730;2023-07-31T00:01:52;24.20;;;22.85;;
9254;SDS011;4663;49.120;9.730;2023-07-31T00:04:17;24.67;;;23.35;;
9254;SDS011;4663;49.120;9.730;2023-07-31T00:06:43;24.58;;;23.05;;
9254;SDS011;4663;49.120;9.730;2023-07-31T00:09:08;25.88;;;24.38;;
9254;SDS011;4663;49.120;9.730;2023-07-31T00:11:34;25.35;;;24.02;;
9254;SDS011;4663;49.120;9.730;2023-07-31T00:13:59;25.13;;;23.48;;
9254;SDS011;4663;49.120;9.730;2023-07-31T00:16:24;22.48;;;21.27;;
9254;SDS011;4663;49.120;9.730;2023-07-31T00:18:50;25.27;;;23.88;;
9254;SDS011;4663;49.120;9.730;2023-07-31T00:21:15;24.42;;;22.83;;
9254;SDS011;4663;49.120;9.730;2023-07-31T00:23:40;23.27;;;21.85;;
9254;SDS011;4663;49.120;9.730;2023-07-31T00:26:06;24.20;;;22.75;;
9254;SDS011;4663;49.120;9.730;2023-07-31T00:28:31;26.60;;;25.10;;
9254;SDS011;4663;49.120;9.730;2023-07-31T00:30:56;24.73;;;23.35;;
9254;SDS011;4663;49.120;9.730;2023-07-31T00:33:22;24.52;;;23.27;;
9254;SDS011;4663;49.120;9.730;2023-07-31T00:35:48;24.83;;;23.40;;
9254;SDS011;4663;49.120;9.730;2023-07-31T00:38:13;26.40;;;25.05;;
9254;SDS011;4663;49.120;9.730;2023-07-31T00:40:39;26.40;;;25.05;;
9254;SDS011;4663;49.120;9.730;2023-07-31T00:43:05;25.63;;;24.25;;
9254;SDS011;4663;49.120;9.730;2023-07-31T00:45:30;26.58;;;24.73;;
9254;SDS011;4663;49.120;9.730;2023-07-31T00:47:56;26.50;;;24.80;;
9254;SDS011;4663;49.120;9.730;2023-07-31T00:50:22;25.77;;;24.45;;
9254;SDS011;4663;49.120;9.730;2023-07-31T00:52:50;28.73;;;26.65;;
9254;SDS011;4663;49.120;9.730;2023-07-31T00:55:15;27.88;;;26.23;;
9254;SDS011;4663;49.120;9.730;2023-07-31T00:57:42;29.73;;;27.75;;
9254;SDS011;4663;49.120;9.730;2023-07-31T01:00:08;29.08;;;27.38;;
9254;SDS011;4663;49.120;9.730;2023-07-31T01:02:34;30.85;;;28.90;;
9254;SDS011;4663;49.120;9.730;2023-07-31T01:05:00;27.77;;;26.38;;
9254;SDS011;4663;49.120;9.730;2023-07-31T01:07:31;30.40;;;28.75;;
9254;SDS011;4663;49.120;9.730;2023-07-31T01:10:08;30.30;;;28.67;;
9254;SDS011;4663;49.120;9.730;2023-07-31T01:12:36;34.13;;;31.88;;
9254;SDS011;4663;49.120;9.730;2023-07-31T01:15:05;33.42;;;31.67;;
9254;SDS011;4663;49.120;9.730;2023-07-31T01:17:31;34.17;;;32.38;;
9254;SDS011;4663;49.120;9.730;2023-07-31T01:19:59;37.13;;;34.60;;
9254;SDS011;4663;49.120;9.730;2023-07-31T01:25:31;37.60;;;35.55;;
9254;SDS011;4663;49.120;9.730;2023-07-31T01:28:07;39.55;;;37.30;;
9254;SDS011;4663;49.120;9.730;2023-07-31T01:30:40;37.00;;;35.10;;
9254;SDS011;4663;49.120;9.730;2023-07-31T01:33:08;34.70;;;32.97;;
9254;SDS011;4663;49.120;9.730;2023-07-31T01:35:34;33.80;;;31.90;;
9254;SDS011;4663;49.120;9.730;2023-07-31T01:38:01;32.42;;;30.58;;
9254;SDS011;4663;49.120;9.730;2023-07-31T01:40:26;32.50;;;30.88;;
9254;SDS011;4663;49.120;9.730;2023-07-31T01:42:52;33.22;;;31.30;;
9254;SDS011;4663;49.120;9.730;2023-07-31T01:45:17;32.22;;;30.42;;
9254;SDS011;4663;49.120;9.730;2023-07-31T01:47:43;39.58;;;35.53;;
9254;SDS011;4663;49.120;9.730;2023-07-31T01:50:08;37.30;;;33.63;;
9254;SDS011;4663;49.120;9.730;2023-07-31T01:52:34;36.38;;;33.92;;
9254;SDS011;4663;49.120;9.730;2023-07-31T01:55:00;34.60;;;32.80;;
9254;SDS011;4663;49.120;9.730;2023-07-31T01:57:25;33.85;;;31.73;;
9254;SDS011;4663;49.120;9.730;2023-07-31T01:59:50;36.03;;;33.97;;
9254;SDS011;4663;49.120;9.730;2023-07-31T02:02:18;33.83;;;31.85;;
9254;SDS011;4663;49.120;9.730;2023-07-31T02:04:43;33.67;;;31.88;;
9254;SDS011;4663;49.120;9.730;2023-07-31T02:07:09;39.20;;;35.40;;
9254;SDS011;4663;49.120;9.730;2023-07-31T02:09:34;37.85;;;34.72;;
9254;SDS011;4663;49.120;9.730;2023-07-31T02:11:59;35.30;;;33.03;;
9254;SDS011;4663;49.120;9.730;2023-07-31T02:14:25;34.85;;;32.78;;
9254;SDS011;4663;49.120;9.730;2023-07-31T02:16:50;36.17;;;34.42;;
9254;SDS011;4663;49.120;9.730;2023-07-31T02:19:15;35.72;;;33.85;;
9254;SDS011;4663;49.120;9.730;2023-07-31T02:21:41;35.38;;;33.67;;
9254;SDS011;4663;49.120;9.730;2023-07-31T02:24:06;38.30;;;36.35;;
9254;SDS011;4663;49.120;9.730;2023-07-31T02:26:32;36.88;;;35.05;;
9254;SDS011;4663;49.120;9.730;2023-07-31T02:28:57;37.80;;;35.95;;
9254;SDS011;4663;49.120;9.730;2023-07-31T02:31:22;33.85;;;32.15;;
9254;SDS011;4663;49.120;9.730;2023-07-31T02:33:48;35.13;;;33.35;;
9254;SDS011;4663;49.120;9.730;2023-07-31T02:36:13;33.05;;;31.45;;
9254;SDS011;4663;49.120;9.730;2023-07-31T02:38:39;38.88;;;36.63;;
9254;SDS011;4663;49.120;9.730;2023-07-31T02:41:05;35.33;;;33.25;;
9254;SDS011;4663;49.120;9.730;2023-07-31T02:43:30;34.53;;;32.78;;
9254;SDS011;4663;49.120;9.730;2023-07-31T02:45:56;35.53;;;33.63;;
9254;SDS011;4663;49.120;9.730;2023-07-31T02:48:21;35.08;;;33.22;;
9254;SDS011;4663;49.120;9.730;2023-07-31T02:50:47;34.63;;;32.40;;
9254;SDS011;4663;49.120;9.730;2023-07-31T02:53:12;33.45;;;31.58;;
9254;SDS011;4663;49.120;9.730;2023-07-31T02:55:38;33.22;;;31.52;;
9254;SDS011;4663;49.120;9.730;2023-07-31T02:58:03;34.90;;;33.15;;
9254;SDS011;4663;49.120;9.730;2023-07-31T03:00:29;34.65;;;32.50;;
9254;SDS011;4663;49.120;9.730;2023-07-31T03:02:54;35.97;;;34.13;;
9254;SDS011;4663;49.120;9.730;2023-07-31T03:05:20;35.67;;;33.75;;
9254;SDS011;4663;49.120;9.730;2023-07-31T03:07:45;34.92;;;32.35;;
9254;SDS011;4663;49.120;9.730;2023-07-31T03:10:11;35.75;;;33.85;;
9254;SDS011;4663;49.120;9.730;2023-07-31T03:12:37;35.85;;;34.00;;
9254;SDS011;4663;49.120;9.730;2023-07-31T03:15:02;32.00;;;30.40;;
9254;SDS011;4663;49.120;9.730;2023-07-31T03:17:28;31.88;;;30.10;;
9254;SDS011;4663;49.120;9.730;2023-07-31T03:19:53;34.10;;;32.30;;
9254;SDS011;4663;49.120;9.730;2023-07-31T03:22:18;32.00;;;30.33;;
9254;SDS011;4663;49.120;9.730;2023-07-31T03:24:44;32.17;;;30.52;;
9254;SDS011;4663;49.120;9.730;2023-07-31T03:27:09;32.35;;;30.35;;
9254;SDS011;4663;49.120;9.730;2023-07-31T03:29:34;31.67;;;30.08;;
9254;SDS011;4663;49.120;9.730;2023-07-31T03:32:00;32.55;;;30.90;;
9254;SDS011;4663;49.120;9.730;2023-07-31T03:34:27;32.90;;;31.13;;
9254;SDS011;4663;49.120;9.730;2023-07-31T03:36:52;34.55;;;32.55;;
9254;SDS011;4663;49.120;9.730;2023-07-31T03:39:18;34.42;;;32.53;;
9254;SDS011;4663;49.120;9.730;2023-07-31T03:41:43;34.60;;;32.80;;
9254;SDS011;4663;49.120;9.730;2023-07-31T03:44:08;36.60;;;34.70;;
9254;SDS011;4663;49.120;9.730;2023-07-31T03:46:34;32.67;;;30.73;;
9254;SDS011;4663;49.120;9.730;2023-07-31T03:49:00;33.95;;;32.13;;
9254;SDS011;4663;49.120;9.730;2023-07-31T03:51:26;36.15;;;34.08;;
9254;SDS011;4663;49.120;9.730;2023-07-31T03:53:51;38.03;;;36.13;;
9254;SDS011;4663;49.120;9.730;2023-07-31T03:56:17;33.88;;;31.98;;
9254;SDS011;4663;49.120;9.730;2023-07-31T03:58:42;33.72;;;31.92;;
9254;SDS011;4663;49.120;9.730;2023-07-31T04:01:07;33.35;;;31.60;;
9254;SDS011;4663;49.120;9.730;2023-07-31T04:03:33;35.28;;;33.47;;
9254;SDS011;4663;49.120;9.730;2023-07-31T04:05:58;34.95;;;33.03;;
9254;SDS011;4663;49.120;9.730;2023-07-31T04:08:24;34.42;;;32.65;;
9254;SDS011;4663;49.120;9.730;2023-07-31T04:10:49;34.90;;;33.20;;
9254;SDS011;4663;49.120;9.730;2023-07-31T04:13:15;36.22;;;34.33;;
9254;SDS011;4663;49.120;9.730;2023-07-31T04:15:41;36.03;;;34.05;;
9254;SDS011;4663;49.120;9.730;2023-07-31T04:18:06;36.33;;;34.53;;
9254;SDS011;4663;49.120;9.730;2023-07-31T04:20:31;38.00;;;35.72;;
9254;SDS011;4663;49.120;9.730;2023-07-31T04:22:57;40.13;;;37.60;;
9254;SDS011;4663;49.120;9.730;2023-07-31T04:25:22;34.58;;;32.72;;
9254;SDS011;4663;49.120;9.730;2023-07-31T04:27:47;33.05;;;31.35;;
9254;SDS011;4663;49.120;9.730;2023-07-31T04:30:13;29.60;;;28.10;;
9254;SDS011;4663;49.120;9.730;2023-07-31T04:32:39;28.63;;;27.17;;
9254;SDS011;4663;49.120;9.730;2023-07-31T04:35:04;23.85;;;22.50;;
9254;SDS011;4663;49.120;9.730;2023-07-31T04:37:30;20.98;;;19.52;;
9254;SDS011;4663;49.120;9.730;2023-07-31T04:39:55;22.30;;;20.67;;
9254;SDS011;4663;49.120;9.730;2023-07-31T04:42:21;21.15;;;19.95;;
9254;SDS011;4663;49.120;9.730;2023-07-31T04:44:46;20.80;;;19.65;;
9254;SDS011;4663;49.120;9.730;2023-07-31T04:47:12;20.25;;;18.80;;
9254;SDS011;4663;49.120;9.730;2023-07-31T04:49:37;20.92;;;19.67;;
9254;SDS011;4663;49.120;9.730;2023-07-31T04:52:03;20.77;;;19.73;;
9254;SDS011;4663;49.120;9.730;2023-07-31T04:54:28;22.85;;;21.58;;
9254;SDS011;4663;49.120;9.730;2023-07-31T04:56:54;23.95;;;22.55;;
9254;SDS011;4663;49.120;9.730;2023-07-31T04:59:19;24.60;;;22.98;;
9254;SDS011;4663;49.120;9.730;2023-07-31T05:01:45;26.52;;;25.05;;
9254;SDS011;4663;49.120;9.730;2023-07-31T05:04:12;27.08;;;25.70;;
9254;SDS011;4663;49.120;9.730;2023-07-31T05:06:39;31.75;;;29.88;;
9254;SDS011;4663;49.120;9.730;2023-07-31T05:09:04;36.75;;;34.22;;
9254;SDS011;4663;49.120;9.730;2023-07-31T05:11:29;38.65;;;36.80;;
9254;SDS011;4663;49.120;9.730;2023-07-31T05:13:55;42.53;;;40.28;;
9254;SDS011;4663;49.120;9.730;2023-07-31T05:16:20;44.80;;;42.40;;
9254;SDS011;4663;49.120;9.730;2023-07-31T05:18:45;43.97;;;41.72;;
9254;SDS011;4663;49.120;9.730;2023-07-31T05:21:11;43.33;;;40.95;;
9254;SDS011;4663;49.120;9.730;2023-07-31T05:23:36;44.58;;;42.20;;
9254;SDS011;4663;49.120;9.730;2023-07-31T05:26:02;48.40;;;45.90;;
9254;SDS011;4663;49.120;9.730;2023-07-31T05:28:31;46.05;;;43.80;;
9254;SDS011;4663;49.120;9.730;2023-07-31T05:30:59;48.03;;;45.58;;
9254;SDS011;4663;49.120;9.730;2023-07-31T05:33:28;46.00;;;43.67;;
9254;SDS011;4663;49.120;9.730;2023-07-31T05:35:53;43.78;;;41.63;;
9254;SDS011;4663;49.120;9.730;2023-07-31T05:38:19;45.20;;;42.83;;
9254;SDS011;4663;49.120;9.730;2023-07-31T05:40:44;42.83;;;40.70;;
9254;SDS011;4663;49.120;9.730;2023-07-31T05:43:10;41.75;;;39.58;;
9254;SDS011;4663;49.120;9.730;2023-07-31T05:45:35;42.25;;;40.05;;
9254;SDS011;4663;49.120;9.730;2023-07-31T05:48:01;38.03;;;35.95;;
9254;SDS011;4663;49.120;9.730;2023-07-31T05:50:27;36.05;;;34.10;;
9254;SDS011;4663;49.120;9.730;2023-07-31T05:52:52;37.28;;;35.13;;
9254;SDS011;4663;49.120;9.730;2023-07-31T05:55:18;34.55;;;32.65;;
9254;SDS011;4663;49.120;9.730;2023-07-31T05:57:43;33.70;;;32.05;;
9254;SDS011;4663;49.120;9.730;2023-07-31T06:00:11;37.08;;;35.28;;
9254;SDS011;4663;49.120;9.730;2023-07-31T06:02:37;40.30;;;37.97;;
9254;SDS011;4663;49.120;9.730;2023-07-31T06:05:03;43.55;;;41.33;;
9254;SDS011;4663;49.120;9.730;2023-07-31T06:07:30;44.72;;;42.25;;
9254;SDS011;4663;49.120;9.730;2023-07-31T06:09:56;47.47;;;45.28;;
9254;SDS011;4663;49.120;9.730;2023-07-31T06:12:26;47.15;;;44.63;;
9254;SDS011;4663;49.120;9.730;2023-07-31T06:14:52;49.97;;;47.60;;
9254;SDS011;4663;49.120;9.730;2023-07-31T06:17:17;45.10;;;42.65;;
9254;SDS011;4663;49.120;9.730;2023-07-31T06:19:43;49.40;;;46.25;;
9254;SDS011;4663;49.120;9.730;2023-07-31T06:22:08;49.47;;;46.67;;
9254;SDS011;4663;49.120;9.730;2023-07-31T06:24:34;45.28;;;42.97;;
9254;SDS011;4663;49.120;9.730;2023-07-31T06:26:59;41.67;;;39.60;;
9254;SDS011;4663;49.120;9.730;2023-07-31T06:29:24;33.38;;;31.73;;
9254;SDS011;4663;49.120;9.730;2023-07-31T06:31:50;27.75;;;26.35;;
9254;SDS011;4663;49.120;9.730;2023-07-31T06:34:15;26.90;;;25.50;;
9254;SDS011;4663;49.120;9.730;2023-07-31T06:36:40;27.00;;;25.52;;
9254;SDS011;4663;49.120;9.730;2023-07-31T06:39:06;26.13;;;24.83;;
9254;SDS011;4663;49.120;9.730;2023-07-31T06:41:31;24.85;;;23.52;;
9254;SDS011;4663;49.120;9.730;2023-07-31T06:43:57;29.05;;;27.65;;
9254;SDS011;4663;49.120;9.730;2023-07-31T06:46:22;32.10;;;30.23;;
9254;SDS011;4663;49.120;9.730;2023-07-31T06:48:47;33.83;;;31.90;;
9254;SDS011;4663;49.120;9.730;2023-07-31T06:51:13;24.35;;;23.10;;
9254;SDS011;4663;49.120;9.730;2023-07-31T06:53:38;17.45;;;16.40;;
9254;SDS011;4663;49.120;9.730;2023-07-31T06:56:04;20.92;;;19.73;;
9254;SDS011;4663;49.120;9.730;2023-07-31T06:58:29;21.98;;;20.83;;
9254;SDS011;4663;49.120;9.730;2023-07-31T07:00:54;26.83;;;25.23;;
9254;SDS011;4663;49.120;9.730;2023-07-31T07:03:21;28.20;;;26.63;;
9254;SDS011;4663;49.120;9.730;2023-07-31T07:05:47;30.00;;;28.45;;
9254;SDS011;4663;49.120;9.730;2023-07-31T07:08:14;24.13;;;22.77;;
9254;SDS011;4663;49.120;9.730;2023-07-31T07:10:40;21.70;;;20.60;;
9254;SDS011;4663;49.120;9.730;2023-07-31T07:13:05;21.13;;;19.92;;
9254;SDS011;4663;49.120;9.730;2023-07-31T07:15:30;21.70;;;20.30;;
9254;SDS011;4663;49.120;9.730;2023-07-31T07:17:56;24.25;;;22.27;;
9254;SDS011;4663;49.120;9.730;2023-07-31T07:20:21;21.33;;;19.92;;
9254;SDS011;4663;49.120;9.730;2023-07-31T07:22:47;21.23;;;19.95;;
9254;SDS011;4663;49.120;9.730;2023-07-31T07:25:12;20.55;;;19.35;;
9254;SDS011;4663;49.120;9.730;2023-07-31T07:27:38;20.33;;;19.02;;
9254;SDS011;4663;49.120;9.730;2023-07-31T07:30:03;20.42;;;19.33;;
9254;SDS011;4663;49.120;9.730;2023-07-31T07:32:29;22.67;;;21.42;;
9254;SDS011;4663;49.120;9.730;2023-07-31T07:34:55;21.90;;;20.70;;
9254;SDS011;4663;49.120;9.730;2023-07-31T07:37:21;23.13;;;21.92;;
9254;SDS011;4663;49.120;9.730;2023-07-31T07:39:46;21.63;;;20.33;;
9254;SDS011;4663;49.120;9.730;2023-07-31T07:42:11;20.77;;;19.63;;
9254;SDS011;4663;49.120;9.730;2023-07-31T07:44:37;21.75;;;20.42;;
9254;SDS011;4663;49.120;9.730;2023-07-31T07:47:02;23.92;;;22.60;;
9254;SDS011;4663;49.120;9.730;2023-07-31T07:49:28;24.10;;;22.73;;
9254;SDS011;4663;49.120;9.730;2023-07-31T07:51:53;25.85;;;24.48;;
9254;SDS011;4663;49.120;9.730;2023-07-31T07:54:18;23.92;;;22.50;;
9254;SDS011;4663;49.120;9.730;2023-07-31T07:56:46;23.02;;;21.63;;
9254;SDS011;4663;49.120;9.730;2023-07-31T07:59:12;23.33;;;22.08;;
9254;SDS011;4663;49.120;9.730;2023-07-31T08:01:37;23.25;;;22.00;;
9254;SDS011;4663;49.120;9.730;2023-07-31T08:04:02;21.88;;;20.27;;
9254;SDS011;4663;49.120;9.730;2023-07-31T08:06:28;24.13;;;22.92;;
9254;SDS011;4663;49.120;9.730;2023-07-31T08:08:54;25.85;;;24.50;;
9254;SDS011;4663;49.120;9.730;2023-07-31T08:11:20;26.70;;;25.25;;
9254;SDS011;4663;49.120;9.730;2023-07-31T08:13:47;22.58;;;21.25;;
9254;SDS011;4663;49.120;9.730;2023-07-31T08:16:12;20.13;;;19.00;;
9254;SDS011;4663;49.120;9.730;2023-07-31T08:18:37;21.65;;;20.45;;
9254;SDS011;4663;49.120;9.730;2023-07-31T08:21:03;18.42;;;17.33;;
9254;SDS011;4663;49.120;9.730;2023-07-31T08:23:28;17.42;;;16.30;;
9254;SDS011;4663;49.120;9.730;2023-07-31T08:25:54;23.35;;;22.05;;
9254;SDS011;4663;49.120;9.730;2023-07-31T08:28:19;25.15;;;23.58;;
9254;SDS011;4663;49.120;9.730;2023-07-31T08:30:44;24.90;;;23.42;;
9254;SDS011;4663;49.120;9.730;2023-07-31T08:33:10;24.80;;;23.42;;
9254;SDS011;4663;49.120;9.730;2023-07-31T08:35:36;17.63;;;16.67;;
9254;SDS011;4663;49.120;9.730;2023-07-31T08:38:01;21.35;;;20.05;;
9254;SDS011;4663;49.120;9.730;2023-07-31T08:40:27;23.95;;;22.42;;
9254;SDS011;4663;49.120;9.730;2023-07-31T08:42:54;28.17;;;26.67;;
9254;SDS011;4663;49.120;9.730;2023-07-31T08:45:22;26.45;;;25.08;;
9254;SDS011;4663;49.120;9.730;2023-07-31T08:47:48;28.83;;;27.00;;
9254;SDS011;4663;49.120;9.730;2023-07-31T08:50:16;25.35;;;24.08;;
9254;SDS011;4663;49.120;9.730;2023-07-31T08:52:42;22.35;;;21.02;;
9254;SDS011;4663;49.120;9.730;2023-07-31T08:55:08;24.80;;;23.50;;
9254;SDS011;4663;49.120;9.730;2023-07-31T08:57:34;26.15;;;24.70;;
9254;SDS011;4663;49.120;9.730;2023-07-31T09:00:01;28.45;;;26.88;;
9254;SDS011;4663;49.120;9.730;2023-07-31T09:02:31;28.08;;;26.52;;
9254;SDS011;4663;49.120;9.730;2023-07-31T09:04:59;26.55;;;25.02;;
9254;SDS011;4663;49.120;9.730;2023-07-31T09:07:27;26.60;;;25.20;;
9254;SDS011;4663;49.120;9.730;2023-07-31T09:09:54;25.45;;;24.00;;
9254;SDS011;4663;49.120;9.730;2023-07-31T09:12:19;24.05;;;22.85;;
9254;SDS011;4663;49.120;9.730;2023-07-31T09:14:45;21.42;;;20.33;;
9254;SDS011;4663;49.120;9.730;2023-07-31T09:17:12;22.25;;;20.95;;
9254;SDS011;4663;49.120;9.730;2023-07-31T09:19:43;20.08;;;18.98;;
9254;SDS011;4663;49.120;9.730;2023-07-31T09:22:08;21.48;;;20.27;;
9254;SDS011;4663;49.120;9.730;2023-07-31T09:24:34;21.33;;;20.17;;
9254;SDS011;4663;49.120;9.730;2023-07-31T09:27:00;24.75;;;23.35;;
9254;SDS011;4663;49.120;9.730;2023-07-31T09:29:27;21.05;;;19.95;;
9254;SDS011;4663;49.120;9.730;2023-07-31T09:31:54;22.13;;;20.95;;
9254;SDS011;4663;49.120;9.730;2023-07-31T09:34:20;19.65;;;18.55;;
9254;SDS011;4663;49.120;9.730;2023-07-31T09:36:54;22.67;;;21.40;;
9254;SDS011;4663;49.120;9.730;2023-07-31T09:39:19;23.35;;;21.95;;
9254;SDS011;4663;49.120;9.730;2023-07-31T09:41:55;25.85;;;24.45;;
9254;SDS011;4663;49.120;9.730;2023-07-31T09:44:21;22.63;;;21.38;;
9254;SDS011;4663;49.120;9.730;2023-07-31T09:46:53;21.20;;;20.00;;
9254;SDS011;4663;49.120;9.730;2023-07-31T09:49:18;21.05;;;19.88;;
9254;SDS011;4663;49.120;9.730;2023-07-31T09:51:44;17.25;;;16.23;;
9254;SDS011;4663;49.120;9.730;2023-07-31T09:54:10;17.65;;;16.65;;
9254;SDS011;4663;49.120;9.730;2023-07-31T09:56:41;16.48;;;15.02;;
9254;SDS011;4663;49.120;9.730;2023-07-31T09:59:11;18.00;;;17.00;;
9254;SDS011;4663;49.120;9.730;2023-07-31T10:01:38;20.70;;;19.40;;
9254;SDS011;4663;49.120;9.730;2023-07-31T10:04:05;16.90;;;16.00;;
9254;SDS011;4663;49.120;9.730;2023-07-31T10:06:36;18.60;;;17.50;;
9254;SDS011;4663;49.120;9.730;2023-07-31T10:09:04;18.60;;;17.45;;
9254;SDS011;4663;49.120;9.730;2023-07-31T10:11:31;18.17;;;16.98;;
9254;SDS011;4663;49.120;9.730;2023-07-31T10:14:03;17.13;;;16.13;;
9254;SDS011;4663;49.120;9.730;2023-07-31T10:16:31;19.13;;;17.77;;
9254;SDS011;4663;49.120;9.730;2023-07-31T10:18:57;17.35;;;16.23;;
9254;SDS011;4663;49.120;9.730;2023-07-31T10:21:24;17.00;;;16.02;;
9254;SDS011;4663;49.120;9.730;2023-07-31T10:23:49;17.50;;;16.60;;
9254;SDS011;4663;49.120;9.730;2023-07-31T10:26:17;18.90;;;17.80;;
9254;SDS011;4663;49.120;9.730;2023-07-31T10:28:44;17.10;;;16.00;;
9254;SDS011;4663;49.120;9.730;2023-07-31T10:31:11;18.13;;;16.70;;
9254;SDS011;4663;49.120;9.730;2023-07-31T10:33:38;18.25;;;16.88;;
9254;SDS011;4663;49.120;9.730;2023-07-31T10:36:14;17.75;;;16.65;;
9254;SDS011;4663;49.120;9.730;2023-07-31T10:38:42;17.83;;;16.63;;
9254;SDS011;4663;49.120;9.730;2023-07-31T10:41:11;17.80;;;16.73;;
9254;SDS011;4663;49.120;9.730;2023-07-31T10:43:37;17.30;;;16.25;;
9254;SDS011;4663;49.120;9.730;2023-07-31T10:46:09;18.85;;;17.50;;
9254;SDS011;4663;49.120;9.730;2023-07-31T10:48:38;18.02;;;16.95;;
9254;SDS011;4663;49.120;9.730;2023-07-31T10:51:07;17.10;;;16.10;;
9254;SDS011;4663;49.120;9.730;2023-07-31T10:53:35;16.42;;;15.55;;
9254;SDS011;4663;49.120;9.730;2023-07-31T10:56:01;16.45;;;15.52;;
9254;SDS011;4663;49.120;9.730;2023-07-31T10:58:29;17.30;;;16.35;;
9254;SDS011;4663;49.120;9.730;2023-07-31T11:00:58;17.70;;;16.70;;
9254;SDS011;4663;49.120;9.730;2023-07-31T11:03:25;17.27;;;16.25;;
9254;SDS011;4663;49.120;9.730;2023-07-31T11:06:01;18.55;;;17.33;;
9254;SDS011;4663;49.120;9.730;2023-07-31T11:08:30;18.10;;;17.10;;
9254;SDS011;4663;49.120;9.730;2023-07-31T11:13:29;16.77;;;15.77;;
9254;SDS011;4663;49.120;9.730;2023-07-31T11:15:55;17.55;;;16.55;;
9254;SDS011;4663;49.120;9.730;2023-07-31T11:18:21;17.58;;;16.55;;
9254;SDS011;4663;49.120;9.730;2023-07-31T11:20:47;18.20;;;16.88;;
9254;SDS011;4663;49.120;9.730;2023-07-31T11:23:12;17.05;;;15.85;;
9254;SDS011;4663;49.120;9.730;2023-07-31T11:25:40;15.95;;;15.15;;
9254;SDS011;4663;49.120;9.730;2023-07-31T11:28:10;17.83;;;16.63;;
9254;SDS011;4663;49.120;9.730;2023-07-31T11:30:42;16.23;;;15.32;;
9254;SDS011;4663;49.120;9.730;2023-07-31T11:33:09;19.10;;;17.83;;
9254;SDS011;4663;49.120;9.730;2023-07-31T11:35:40;17.80;;;16.67;;
9254;SDS011;4663;49.120;9.730;2023-07-31T11:40:49;18.10;;;17.10;;
9254;SDS011;4663;49.120;9.730;2023-07-31T11:43:15;24.05;;;22.50;;
9254;SDS011;4663;49.120;9.730;2023-07-31T11:45:44;17.25;;;16.25;;
9254;SDS011;4663;49.120;9.730;2023-07-31T11:48:26;18.58;;;17.45;;
9254;SDS011;4663;49.120;9.730;2023-07-31T11:50:59;18.38;;;17.27;;
9254;SDS011;4663;49.120;9.730;2023-07-31T11:53:31;17.40;;;16.40;;
9254;SDS011;4663;49.120;9.730;2023-07-31T11:56:00;18.88;;;17.58;;
9254;SDS011;4663;49.120;9.730;2023-07-31T11:58:29;17.45;;;16.45;;
9254;SDS011;4663;49.120;9.730;2023-07-31T12:00:56;17.70;;;16.60;;
9254;SDS011;4663;49.120;9.730;2023-07-31T12:03:23;17.40;;;16.23;;
9254;SDS011;4663;49.120;9.730;2023-07-31T12:05:49;17.25;;;16.30;;
9254;SDS011;4663;49.120;9.730;2023-07-31T12:08:14;18.55;;;17.45;;
9254;SDS011;4663;49.120;9.730;2023-07-31T12:10:41;19.35;;;18.30;;
9254;SDS011;4663;49.120;9.730;2023-07-31T12:13:08;24.20;;;22.83;;
9254;SDS011;4663;49.120;9.730;2023-07-31T12:15:42;25.13;;;23.63;;
9254;SDS011;4663;49.120;9.730;2023-07-31T12:18:10;22.50;;;21.30;;
9254;SDS011;4663;49.120;9.730;2023-07-31T12:20:40;21.02;;;19.85;;
9254;SDS011;4663;49.120;9.730;2023-07-31T12:23:12;23.98;;;22.67;;
9254;SDS011;4663;49.120;9.730;2023-07-31T12:25:54;22.95;;;21.75;;
9254;SDS011;4663;49.120;9.730;2023-07-31T12:28:47;26.65;;;25.20;;
9254;SDS011;4663;49.120;9.730;2023-07-31T12:33:44;24.45;;;23.08;;
9254;SDS011;4663;49.120;9.730;2023-07-31T12:36:12;24.52;;;23.20;;
9254;SDS011;4663;49.120;9.730;2023-07-31T12:38:38;28.20;;;26.60;;
9254;SDS011;4663;49.120;9.730;2023-07-31T12:41:04;23.85;;;22.65;;
9254;SDS011;4663;49.120;9.730;2023-07-31T12:43:31;24.33;;;23.02;;
9254;SDS011;4663;49.120;9.730;2023-07-31T12:45:57;25.38;;;24.00;;
9254;SDS011;4663;49.120;9.730;2023-07-31T12:48:23;24.20;;;22.83;;
9254;SDS011;4663;49.120;9.730;2023-07-31T12:50:48;25.10;;;23.70;;
9254;SDS011;4663;49.120;9.730;2023-07-31T12:53:14;27.55;;;26.05;;
9254;SDS011;4663;49.120;9.730;2023-07-31T12:55:40;23.35;;;21.95;;
9254;SDS011;4663;49.120;9.730;2023-07-31T12:58:05;25.55;;;24.05;;
9254;SDS011;4663;49.120;9.730;2023-07-31T13:00:31;26.30;;;24.90;;
9254;SDS011;4663;49.120;9.730;2023-07-31T13:02:56;25.33;;;24.00;;
9254;SDS011;4663;49.120;9.730;2023-07-31T13:05:22;26.35;;;24.92;;
9254;SDS011;4663;49.120;9.730;2023-07-31T13:07:48;25.23;;;23.80;;
9254;SDS011;4663;49.120;9.730;2023-07-31T13:10:13;25.38;;;23.98;;
9254;SDS011;4663;49.120;9.730;2023-07-31T13:12:39;26.45;;;24.77;;
9254;SDS011;4663;49.120;9.730;2023-07-31T13:15:05;25.13;;;23.65;;
9254;SDS011;4663;49.120;9.730;2023-07-31T13:17:31;22.23;;;21.13;;
9254;SDS011;4663;49.120;9.730;2023-07-31T13:19:57;22.02;;;20.88;;
9254;SDS011;4663;49.120;9.730;2023-07-31T13:22:22;23.02;;;21.80;;
9254;SDS011;4663;49.120;9.730;2023-07-31T13:24:48;25.63;;;24.23;;
9254;SDS011;4663;49.120;9.730;2023-07-31T13:27:14;26.20;;;24.63;;
9254;SDS011;4663;49.120;9.730;2023-07-31T13:29:43;23.73;;;22.20;;
9254;SDS011;4663;49.120;9.730;2023-07-31T13:32:09;23.52;;;22.35;;
9254;SDS011;4663;49.120;9.730;2023-07-31T13:34:34;22.25;;;21.15;;
9254;SDS011;4663;49.120;9.730;2023-07-31T13:37:00;23.30;;;21.92;;
9254;SDS011;4663;49.120;9.730;2023-07-31T13:39:25;23.45;;;22.20;;
9254;SDS011;4663;49.120;9.730;2023-07-31T13:41:51;22.73;;;21.40;;
9254;SDS011;4663;49.120;9.730;2023-07-31T13:44:16;20.13;;;19.08;;
9254;SDS011;4663;49.120;9.730;2023-07-31T13:46:42;18.25;;;17.33;;
9254;SDS011;4663;49.120;9.730;2023-07-31T13:49:07;20.00;;;18.80;;
9254;SDS011;4663;49.120;9.730;2023-07-31T13:51:33;22.00;;;20.60;;
9254;SDS011;4663;49.120;9.730;2023-07-31T13:53:59;20.80;;;19.50;;
9254;SDS011;4663;49.120;9.730;2023-07-31T13:56:24;21.60;;;20.30;;
9254;SDS011;4663;49.120;9.730;2023-07-31T13:58:49;19.27;;;18.08;;
9254;SDS011;4663;49.120;9.730;2023-07-31T14:01:15;18.85;;;17.63;;
9254;SDS011;4663;49.120;9.730;2023-07-31T14:03:41;18.83;;;17.77;;
9254;SDS011;4663;49.120;9.730;2023-07-31T14:06:06;20.33;;;19.25;;
9254;SDS011;4663;49.120;9.730;2023-07-31T14:08:32;20.58;;;19.42;;
9254;SDS011;4663;49.120;9.730;2023-07-31T14:10:57;22.15;;;21.00;;
9254;SDS011;4663;49.120;9.730;2023-07-31T14:13:23;25.13;;;23.65;;
9254;SDS011;4663;49.120;9.730;2023-07-31T14:15:48;23.70;;;22.27;;
9254;SDS011;4663;49.120;9.730;2023-07-31T14:18:13;21.65;;;20.38;;
9254;SDS011;4663;49.120;9.730;2023-07-31T14:20:39;23.52;;;21.90;;
9254;SDS011;4663;49.120;9.730;2023-07-31T14:23:04;22.58;;;21.30;;
9254;SDS011;4663;49.120;9.730;2023-07-31T14:25:30;24.02;;;22.77;;
9254;SDS011;4663;49.120;9.730;2023-07-31T14:27:56;22.25;;;21.00;;
9254;SDS011;4663;49.120;9.730;2023-07-31T14:30:21;21.67;;;20.50;;
9254;SDS011;4663;49.120;9.730;2023-07-31T14:32:46;22.80;;;21.58;;
9254;SDS011;4663;49.120;9.730;2023-07-31T14:35:12;23.23;;;21.85;;
9254;SDS011;4663;49.120;9.730;2023-07-31T14:37:38;22.27;;;21.10;;
9254;SDS011;4663;49.120;9.730;2023-07-31T14:40:05;22.08;;;20.88;;
9254;SDS011;4663;49.120;9.730;2023-07-31T14:42:31;22.27;;;21.02;;
9254;SDS011;4663;49.120;9.730;2023-07-31T14:44:56;22.08;;;20.85;;
9254;SDS011;4663;49.120;9.730;2023-07-31T14:47:22;20.45;;;19.30;;
9254;SDS011;4663;49.120;9.730;2023-07-31T14:49:47;20.02;;;18.77;;
9254;SDS011;4663;49.120;9.730;2023-07-31T14:52:13;19.90;;;18.75;;
9254;SDS011;4663;49.120;9.730;2023-07-31T14:54:38;21.50;;;20.05;;